createdAt,value
2023-02-03T00:01:53.058Z,8.23
2023-02-03T00:04:19.615Z,8.25
2023-02-03T00:06:47.191Z,8.27
2023-02-03T00:09:15.034Z,8.27
2023-02-03T00:11:41.575Z,8.27
2023-02-03T00:14:08.250Z,8.29
2023-02-03T00:16:35.320Z,8.27
2023-02-03T00:19:01.868Z,8.27
2023-02-03T00:21:28.407Z,8.26
2023-02-03T00:23:55.161Z,8.25
2023-02-03T00:26:21.741Z,8.26
2023-02-03T00:28:48.214Z,8.25
2023-02-03T00:31:20.243Z,8.24
2023-02-03T00:33:47.624Z,8.25
2023-02-03T00:36:14.481Z,8.26
2023-02-03T00:38:41.121Z,8.28
2023-02-03T00:41:07.852Z,8.29
2023-02-03T00:43:34.421Z,8.28
2023-02-03T00:46:01.295Z,8.28
2023-02-03T00:48:27.788Z,8.28
2023-02-03T00:50:54.318Z,8.29
2023-02-03T00:53:20.823Z,8.31
2023-02-03T00:55:47.311Z,8.33
2023-02-03T00:58:13.827Z,8.31
2023-02-03T01:00:40.246Z,8.30
2023-02-03T01:03:06.913Z,8.30
2023-02-03T01:05:33.408Z,8.33
2023-02-03T01:08:01.590Z,8.31
2023-02-03T01:10:28.972Z,8.32
2023-02-03T01:12:55.840Z,8.34
2023-02-03T01:15:22.655Z,8.31
2023-02-03T01:17:49.090Z,8.30
2023-02-03T01:20:17.117Z,8.29
2023-02-03T01:22:43.698Z,8.30
2023-02-03T01:25:10.238Z,8.32
2023-02-03T01:27:37.016Z,8.31
2023-02-03T01:30:03.976Z,8.31
2023-02-03T01:32:30.489Z,8.30
2023-02-03T01:34:56.968Z,8.29
2023-02-03T01:37:23.397Z,8.28
2023-02-03T01:39:49.910Z,8.27
2023-02-03T01:42:16.747Z,8.27
2023-02-03T01:44:44.987Z,8.27
2023-02-03T01:47:14.900Z,8.28
2023-02-03T01:49:45.380Z,8.27
2023-02-03T01:52:11.884Z,8.29
2023-02-03T01:54:43.762Z,8.32
2023-02-03T01:57:16.080Z,8.30
2023-02-03T01:59:43.474Z,8.32
2023-02-03T02:02:11.601Z,8.32
2023-02-03T02:05:01.434Z,8.32
2023-02-03T02:07:28.151Z,8.30
2023-02-03T02:09:56.447Z,8.31
2023-02-03T02:12:22.946Z,8.33
2023-02-03T02:14:49.467Z,8.32
2023-02-03T02:17:21.771Z,8.34
2023-02-03T02:20:24.985Z,8.33
2023-02-03T02:23:25.690Z,8.36
2023-02-03T02:26:01.148Z,8.36
2023-02-03T02:29:19.916Z,8.37
2023-02-03T02:32:06.843Z,8.36
2023-02-03T02:34:48.617Z,8.38
2023-02-03T02:37:22.756Z,8.38
2023-02-03T02:40:00.525Z,8.37
2023-02-03T02:42:42.548Z,8.37
2023-02-03T02:45:30.037Z,8.37
2023-02-03T02:48:08.757Z,8.37
2023-02-03T02:50:41.289Z,8.36
2023-02-03T02:53:10.160Z,8.34
2023-02-03T02:55:39.842Z,8.35
2023-02-03T02:58:11.036Z,8.36
2023-02-03T03:00:38.890Z,8.37
2023-02-03T03:03:19.051Z,8.38
2023-02-03T03:05:56.158Z,8.42
2023-02-03T03:08:32.042Z,8.42
2023-02-03T03:11:00.978Z,8.40
2023-02-03T03:13:34.156Z,8.40
2023-02-03T03:16:05.450Z,8.44
2023-02-03T03:18:37.169Z,8.45
2023-02-03T03:21:06.582Z,8.44
2023-02-03T03:23:39.404Z,8.46
2023-02-03T03:26:14.708Z,8.47
2023-02-03T03:28:51.266Z,8.45
2023-02-03T03:31:20.240Z,8.46
2023-02-03T03:33:48.039Z,8.46
2023-02-03T03:36:39.256Z,8.47
2023-02-03T03:39:13.603Z,8.47
2023-02-03T03:41:55.323Z,8.48
2023-02-03T03:44:26.111Z,8.50
2023-02-03T03:47:03.581Z,8.49
2023-02-03T03:49:34.038Z,8.49
2023-02-03T03:52:05.077Z,8.51
2023-02-03T03:54:32.616Z,8.51
2023-02-03T03:57:15.160Z,8.53
2023-02-03T03:59:46.999Z,8.53
2023-02-03T04:02:14.746Z,8.54
2023-02-03T04:04:43.580Z,8.54
2023-02-03T04:07:10.086Z,8.55
2023-02-03T04:09:37.587Z,8.55
2023-02-03T04:12:06.232Z,8.57
2023-02-03T04:14:39.718Z,8.58
2023-02-03T04:17:06.781Z,8.58
2023-02-03T04:19:33.303Z,8.60
2023-02-03T04:21:59.885Z,8.60
2023-02-03T04:24:26.501Z,8.62
2023-02-03T04:26:53.022Z,8.65
2023-02-03T04:29:19.486Z,8.65
2023-02-03T04:31:46.038Z,8.66
2023-02-03T04:34:12.585Z,8.65
2023-02-03T04:36:39.166Z,8.66
2023-02-03T04:39:05.831Z,8.72
2023-02-03T04:41:32.305Z,8.71
2023-02-03T04:43:58.801Z,8.69
2023-02-03T04:46:25.406Z,8.70
2023-02-03T04:48:51.888Z,8.71
2023-02-03T04:51:18.397Z,8.72
2023-02-03T04:53:44.817Z,8.77
2023-02-03T04:56:11.311Z,8.80
2023-02-03T04:58:37.873Z,8.78
2023-02-03T05:01:09.248Z,8.78
2023-02-03T05:03:36.107Z,8.79
2023-02-03T05:06:03.549Z,8.78
2023-02-03T05:08:30.703Z,8.76
2023-02-03T05:10:57.572Z,8.78
2023-02-03T05:13:24.368Z,8.82
2023-02-03T05:15:50.969Z,8.88
2023-02-03T05:18:17.426Z,8.89
2023-02-03T05:20:44.072Z,8.90
2023-02-03T05:23:10.545Z,8.91
2023-02-03T05:25:37.026Z,8.94
2023-02-03T05:28:03.798Z,8.94
2023-02-03T05:30:30.756Z,8.95
2023-02-03T05:32:57.333Z,9.00
2023-02-03T05:35:23.785Z,8.98
2023-02-03T05:37:50.252Z,8.97
2023-02-03T05:40:35.346Z,8.96
2023-02-03T05:43:01.899Z,8.97
2023-02-03T05:45:28.438Z,8.96
2023-02-03T05:47:54.950Z,8.97
2023-02-03T05:50:22.847Z,9.01
2023-02-03T05:52:50.073Z,8.99
2023-02-03T05:55:16.764Z,8.96
2023-02-03T05:57:43.326Z,8.96
2023-02-03T06:00:10.533Z,8.99
2023-02-03T06:02:36.986Z,9.00
2023-02-03T06:05:03.588Z,9.03
2023-02-03T06:07:30.184Z,8.99
2023-02-03T06:09:56.655Z,8.99
2023-02-03T06:12:23.188Z,9.00
2023-02-03T06:14:49.606Z,8.99
2023-02-03T06:17:16.054Z,8.98
2023-02-03T06:19:42.570Z,8.98
2023-02-03T06:22:09.124Z,9.01
2023-02-03T06:24:35.550Z,8.99
2023-02-03T06:27:01.995Z,8.99
2023-02-03T06:29:28.484Z,8.98
2023-02-03T06:31:55.142Z,8.99
2023-02-03T06:34:21.713Z,8.99
2023-02-03T06:36:49.232Z,9.00
2023-02-03T06:39:15.824Z,8.98
2023-02-03T06:41:42.525Z,8.98
2023-02-03T06:44:08.964Z,8.97
2023-02-03T06:46:35.599Z,8.97
2023-02-03T06:49:02.127Z,8.96
2023-02-03T06:51:28.682Z,8.97
2023-02-03T06:53:55.124Z,8.95
2023-02-03T06:56:21.647Z,8.93
2023-02-03T06:58:48.145Z,8.96
2023-02-03T07:01:14.960Z,8.95
2023-02-03T07:03:41.448Z,8.97
2023-02-03T07:06:08.101Z,8.97
2023-02-03T07:08:34.550Z,8.94
2023-02-03T07:11:01.071Z,8.95
2023-02-03T07:13:27.586Z,8.96
2023-02-03T07:15:54.202Z,8.95
2023-02-03T07:18:45.760Z,8.95
2023-02-03T07:21:11.393Z,8.97
2023-02-03T07:23:37.911Z,8.96
2023-02-03T07:26:05.995Z,8.99
2023-02-03T07:28:36.312Z,8.96
2023-02-03T07:31:08.329Z,8.96
2023-02-03T07:33:35.026Z,8.97
2023-02-03T07:36:01.751Z,8.95
2023-02-03T07:38:29.106Z,8.95
2023-02-03T07:40:56.071Z,8.97
2023-02-03T07:43:23.318Z,9.00
2023-02-03T07:45:50.070Z,8.99
2023-02-03T07:48:16.611Z,8.98
2023-02-03T07:50:43.161Z,9.00
2023-02-03T07:53:09.619Z,9.02
2023-02-03T07:55:38.643Z,9.01
2023-02-03T07:58:05.212Z,9.01
2023-02-03T08:00:31.741Z,9.02
2023-02-03T08:02:58.295Z,9.04
2023-02-03T08:05:25.063Z,9.04
2023-02-03T08:07:51.752Z,9.05
2023-02-03T08:10:18.590Z,9.08
2023-02-03T08:12:46.680Z,9.08
2023-02-03T08:15:13.906Z,9.10
2023-02-03T08:17:41.288Z,9.12
2023-02-03T08:20:09.394Z,9.13
2023-02-03T08:22:35.848Z,9.14
2023-02-03T08:25:02.555Z,9.16
2023-02-03T08:27:29.160Z,9.18
2023-02-03T08:29:56.015Z,9.21
2023-02-03T08:32:23.001Z,9.22
2023-02-03T08:34:50.167Z,9.22
2023-02-03T08:37:19.701Z,9.24
2023-02-03T08:39:47.675Z,9.24
2023-02-03T08:42:14.276Z,9.25
2023-02-03T08:44:40.919Z,9.27
2023-02-03T08:47:07.953Z,9.29
2023-02-03T08:49:35.974Z,9.31
2023-02-03T08:52:02.641Z,9.34
2023-02-03T08:54:29.207Z,9.36
2023-02-03T08:56:55.705Z,9.38
2023-02-03T08:59:23.082Z,9.40
2023-02-03T09:01:49.622Z,9.46
2023-02-03T09:04:19.334Z,9.48
2023-02-03T09:06:47.937Z,9.50
2023-02-03T09:09:18.024Z,9.55
2023-02-03T09:11:44.568Z,9.59
2023-02-03T09:14:11.387Z,9.62
2023-02-03T09:16:38.823Z,9.65
2023-02-03T09:19:05.403Z,9.66
2023-02-03T09:21:34.729Z,9.69
2023-02-03T09:24:07.481Z,9.71
2023-02-03T09:26:34.206Z,9.76
2023-02-03T09:29:00.870Z,9.76
2023-02-03T09:31:27.446Z,9.78
2023-02-03T09:33:53.938Z,9.79
2023-02-03T09:36:20.444Z,9.80
2023-02-03T09:38:46.935Z,9.80
2023-02-03T09:41:38.194Z,9.85
2023-02-03T09:44:24.902Z,9.83
2023-02-03T09:46:55.765Z,9.83
2023-02-03T09:49:50.411Z,9.84
2023-02-03T09:52:23.015Z,9.82
2023-02-03T09:54:58.489Z,9.84
2023-02-03T09:57:27.922Z,9.85
2023-02-03T09:59:57.337Z,9.86
2023-02-03T10:02:44.064Z,9.88
2023-02-03T10:05:30.597Z,9.88
2023-02-03T10:08:41.162Z,9.90
2023-02-03T10:11:18.679Z,9.90
2023-02-03T10:14:22.211Z,9.92
2023-02-03T10:17:13.556Z,9.93
2023-02-03T10:20:02.729Z,9.94
2023-02-03T10:22:32.463Z,9.97
2023-02-03T10:25:14.235Z,10.02
2023-02-03T10:27:43.833Z,10.03
2023-02-03T10:30:24.222Z,10.02
2023-02-03T10:33:18.401Z,10.05
2023-02-03T10:35:52.883Z,10.06
2023-02-03T10:38:48.672Z,10.06
2023-02-03T10:41:17.174Z,10.05
2023-02-03T10:43:52.878Z,10.07
2023-02-03T10:46:20.749Z,10.09
2023-02-03T10:48:49.334Z,10.12
2023-02-03T10:51:20.939Z,10.15
2023-02-03T10:53:48.134Z,10.17
2023-02-03T10:56:20.011Z,10.21
2023-02-03T10:58:55.351Z,10.22
2023-02-03T11:01:25.885Z,10.26
2023-02-03T11:04:01.888Z,10.25
2023-02-03T11:06:28.601Z,10.24
2023-02-03T11:08:55.629Z,10.20
2023-02-03T11:11:29.037Z,10.15
2023-02-03T11:14:12.140Z,10.10
2023-02-03T11:16:40.138Z,10.07
2023-02-03T11:19:14.352Z,10.04
2023-02-03T11:21:48.265Z,10.01
2023-02-03T11:24:20.110Z,10.01
2023-02-03T11:27:04.943Z,10.00
2023-02-03T11:29:34.598Z,9.99
2023-02-03T11:32:35.193Z,9.99
2023-02-03T11:35:16.935Z,9.98
2023-02-03T11:37:45.918Z,9.98
2023-02-03T11:40:22.055Z,10.02
2023-02-03T11:42:51.316Z,10.01
2023-02-03T11:45:17.830Z,9.97
2023-02-03T11:48:10.614Z,9.94
2023-02-03T11:50:41.023Z,9.94
2023-02-03T11:53:16.538Z,9.97
2023-02-03T11:55:54.662Z,10.01
2023-02-03T11:58:39.453Z,9.96
2023-02-03T12:01:06.155Z,9.97
2023-02-03T12:03:44.869Z,9.98
2023-02-03T12:06:32.467Z,10.00
2023-02-03T12:09:07.965Z,9.98
2023-02-03T12:11:59.545Z,9.99
2023-02-03T12:14:52.790Z,9.93
2023-02-03T12:18:00.042Z,9.94
2023-02-03T12:20:40.717Z,9.94
2023-02-03T12:23:25.389Z,9.92
2023-02-03T12:26:07.861Z,9.76
2023-02-03T12:28:55.006Z,9.69
2023-02-03T12:31:31.170Z,9.67
2023-02-03T12:34:39.426Z,9.65
2023-02-03T12:37:10.442Z,9.61
2023-02-03T12:39:50.660Z,9.58
2023-02-03T12:42:29.675Z,9.55
2023-02-03T12:45:05.542Z,9.52
2023-02-03T12:47:47.877Z,9.47
2023-02-03T12:50:19.826Z,9.44
2023-02-03T12:52:49.558Z,9.37
2023-02-03T12:55:32.631Z,9.29
2023-02-03T12:58:05.531Z,9.28
2023-02-03T13:00:46.319Z,9.29
2023-02-03T13:03:31.711Z,9.30
2023-02-03T13:06:07.426Z,9.30
2023-02-03T13:09:01.325Z,9.30
2023-02-03T13:11:32.139Z,9.33
2023-02-03T13:14:15.588Z,9.36
2023-02-03T13:16:46.057Z,9.41
2023-02-03T13:19:21.291Z,9.45
2023-02-03T13:21:51.564Z,9.46
2023-02-03T13:24:18.727Z,9.46
2023-02-03T13:27:03.821Z,9.50
2023-02-03T13:29:50.346Z,9.51
2023-02-03T13:32:47.883Z,9.50
2023-02-03T13:35:42.267Z,9.52
2023-02-03T13:38:33.565Z,9.54
2023-02-03T13:41:20.737Z,9.52
2023-02-03T13:43:51.767Z,9.53
2023-02-03T13:46:25.535Z,9.54
2023-02-03T13:48:54.443Z,9.55
2023-02-03T13:51:24.245Z,9.52
2023-02-03T13:53:58.161Z,9.54
2023-02-03T13:56:28.708Z,9.52
2023-02-03T13:59:11.791Z,9.52
2023-02-03T14:01:42.687Z,9.52
2023-02-03T14:04:29.615Z,9.50
2023-02-03T14:06:58.899Z,9.49
2023-02-03T14:09:31.656Z,9.54
2023-02-03T14:12:19.803Z,9.56
2023-02-03T14:14:52.456Z,9.54
2023-02-03T14:17:51.147Z,9.53
2023-02-03T14:20:26.908Z,9.53
2023-02-03T14:23:00.712Z,9.47
2023-02-03T14:25:28.580Z,9.45
2023-02-03T14:28:05.870Z,9.45
2023-02-03T14:30:32.550Z,9.46
2023-02-03T14:33:02.829Z,9.43
2023-02-03T14:35:37.487Z,9.40
2023-02-03T14:38:07.404Z,9.39
2023-02-03T14:40:51.645Z,9.37
2023-02-03T14:43:34.795Z,9.34
2023-02-03T14:46:16.734Z,9.30
2023-02-03T14:49:12.312Z,9.30
2023-02-03T14:51:47.729Z,9.29
2023-02-03T14:54:17.310Z,9.29
2023-02-03T14:57:10.638Z,9.30
2023-02-03T14:59:51.028Z,9.27
2023-02-03T15:02:25.355Z,9.25
2023-02-03T15:05:13.822Z,9.22
2023-02-03T15:07:48.552Z,9.21
2023-02-03T15:10:29.891Z,9.20
2023-02-03T15:12:58.476Z,9.15
2023-02-03T15:15:27.910Z,9.13
2023-02-03T15:17:57.447Z,9.13
2023-02-03T15:20:29.381Z,9.13
2023-02-03T15:22:55.933Z,9.08
2023-02-03T15:25:26.157Z,9.07
2023-02-03T15:27:53.228Z,9.05
2023-02-03T15:30:27.442Z,9.04
2023-02-03T15:33:01.354Z,9.00
2023-02-03T15:35:32.393Z,9.00
2023-02-03T15:38:04.414Z,9.01
2023-02-03T15:40:38.558Z,9.01
2023-02-03T15:43:17.413Z,8.99
2023-02-03T15:45:59.972Z,8.95
2023-02-03T15:48:38.614Z,8.92
2023-02-03T15:51:16.535Z,8.87
2023-02-03T15:53:52.604Z,8.84
2023-02-03T15:56:30.987Z,8.81
2023-02-03T15:58:58.935Z,8.79
2023-02-03T16:01:28.134Z,8.76
2023-02-03T16:03:57.381Z,8.72
2023-02-03T16:06:35.702Z,8.69
2023-02-03T16:09:03.955Z,8.67
2023-02-03T16:11:33.481Z,8.65
2023-02-03T16:14:10.910Z,8.60
2023-02-03T16:16:52.163Z,8.57
2023-02-03T16:19:32.376Z,8.54
2023-02-03T16:22:02.204Z,8.52
2023-02-03T16:24:46.033Z,8.50
2023-02-03T16:27:28.123Z,8.47
2023-02-03T16:30:38.970Z,8.45
2023-02-03T16:33:32.748Z,8.42
2023-02-03T16:36:28.209Z,8.40
2023-02-03T16:39:13.678Z,8.41
2023-02-03T16:41:58.871Z,8.37
2023-02-03T16:44:44.112Z,8.35
2023-02-03T16:47:57.036Z,8.33
2023-02-03T16:50:42.921Z,8.30
2023-02-03T16:53:15.183Z,8.30
2023-02-03T16:55:43.006Z,8.26
2023-02-03T16:58:12.390Z,8.24
2023-02-03T17:00:44.232Z,8.21
2023-02-03T17:03:12.843Z,8.24
2023-02-03T17:05:41.312Z,8.20
2023-02-03T17:08:08.272Z,8.20
2023-02-03T17:10:36.758Z,8.20
2023-02-03T17:13:03.775Z,8.17
2023-02-03T17:15:30.549Z,8.14
2023-02-03T17:18:00.637Z,8.17
2023-02-03T17:20:27.240Z,8.16
2023-02-03T17:22:54.756Z,8.11
2023-02-03T17:25:21.592Z,8.08
2023-02-03T17:27:48.623Z,8.13
2023-02-03T17:30:15.947Z,8.14
2023-02-03T17:32:42.552Z,8.13
2023-02-03T17:35:09.199Z,8.07
2023-02-03T17:37:36.142Z,8.04
2023-02-03T17:54:12.180Z,7.85
2023-02-03T17:56:38.714Z,7.82
2023-02-03T17:59:06.000Z,7.77
2023-02-03T18:01:32.744Z,7.79
2023-02-03T18:04:04.717Z,7.77
2023-02-03T18:06:35.082Z,7.77
2023-02-03T18:09:07.382Z,7.77
2023-02-03T18:11:35.120Z,7.77
2023-02-03T18:14:02.538Z,7.73
2023-02-03T18:16:33.076Z,7.70
2023-02-03T18:19:00.901Z,7.72
2023-02-03T18:21:27.450Z,7.69
2023-02-03T18:23:59.389Z,7.68
2023-02-03T18:26:28.831Z,7.67
2023-02-03T18:28:56.542Z,7.68
2023-02-03T18:31:25.285Z,7.68
2023-02-03T18:33:52.660Z,7.73
2023-02-03T18:36:19.257Z,7.75
2023-02-03T18:38:46.672Z,7.76
2023-02-03T18:41:19.348Z,7.75
2023-02-03T18:43:48.672Z,7.76
2023-02-03T18:46:29.955Z,7.77
2023-02-03T18:48:57.323Z,7.78
2023-02-03T18:51:24.868Z,7.78
2023-02-03T18:53:52.222Z,7.77
2023-02-03T18:56:21.839Z,7.76
2023-02-03T18:58:48.909Z,7.74
2023-02-03T19:01:27.400Z,7.79
2023-02-03T19:03:54.903Z,7.79
2023-02-03T19:06:21.624Z,7.77
2023-02-03T19:08:48.146Z,7.79
2023-02-03T19:11:15.110Z,7.79
2023-02-03T19:13:42.305Z,7.78
2023-02-03T19:16:11.543Z,7.78
2023-02-03T19:18:38.095Z,7.76
2023-02-03T19:21:04.826Z,7.78
2023-02-03T19:23:31.510Z,7.79
2023-02-03T19:25:58.216Z,7.83
2023-02-03T19:28:30.875Z,7.80
2023-02-03T19:31:09.522Z,7.75
2023-02-03T19:33:36.802Z,7.74
2023-02-03T19:36:05.619Z,7.77
2023-02-03T19:38:32.391Z,7.75
2023-02-03T19:40:59.173Z,7.75
2023-02-03T19:43:25.728Z,7.72
2023-02-03T19:45:52.277Z,7.74
2023-02-03T19:48:19.598Z,7.74
2023-02-03T19:50:49.453Z,7.75
2023-02-03T19:53:17.333Z,7.74
2023-02-03T19:55:44.336Z,7.77
2023-02-03T19:58:12.440Z,7.77
2023-02-03T20:00:39.041Z,7.76
2023-02-03T20:03:05.776Z,7.74
2023-02-03T20:05:32.354Z,7.76
2023-02-03T20:07:58.953Z,7.77
2023-02-03T20:10:29.298Z,7.79
2023-02-03T20:12:56.140Z,7.78
2023-02-03T20:15:22.701Z,7.75
2023-02-03T20:17:49.297Z,7.76
2023-02-03T20:20:18.161Z,7.76
2023-02-03T20:22:46.238Z,7.75
2023-02-03T20:25:12.800Z,7.76
2023-02-03T20:27:39.425Z,7.75
2023-02-03T20:30:06.426Z,7.76
2023-02-03T20:32:33.014Z,7.75
2023-02-03T20:34:59.999Z,7.75
2023-02-03T20:37:26.512Z,7.73
2023-02-03T20:39:52.984Z,7.74
2023-02-03T20:42:19.568Z,7.76
2023-02-03T20:44:46.458Z,7.72
2023-02-03T20:47:17.219Z,7.72
2023-02-03T20:49:43.805Z,7.71
2023-02-03T20:52:13.323Z,7.75
2023-02-03T20:54:40.622Z,7.73
2023-02-03T20:57:18.970Z,7.74
2023-02-03T20:59:46.101Z,7.74
2023-02-03T21:02:23.130Z,7.73
2023-02-03T21:04:58.808Z,7.72
2023-02-03T21:07:29.982Z,7.72
2023-02-03T21:09:58.552Z,7.72
2023-02-03T21:12:25.176Z,7.74
2023-02-03T21:14:53.819Z,7.76
2023-02-03T21:17:27.448Z,7.74
2023-02-03T21:19:54.824Z,7.72
2023-02-03T21:22:24.160Z,7.74
2023-02-03T21:24:58.475Z,7.73
2023-02-03T21:27:28.618Z,7.74
2023-02-03T21:29:57.615Z,7.74
2023-02-03T21:32:36.859Z,7.73
2023-02-03T21:35:20.126Z,7.73
2023-02-03T21:37:46.781Z,7.72
2023-02-03T21:40:20.127Z,7.74
2023-02-03T21:42:47.063Z,7.79
2023-02-03T21:45:17.078Z,7.74
2023-02-03T21:47:45.835Z,7.73
2023-02-03T21:50:36.406Z,7.76
2023-02-03T21:53:27.597Z,7.77
2023-02-03T21:55:54.796Z,7.78
2023-02-03T21:58:32.261Z,7.72
2023-02-03T22:01:02.147Z,7.70
2023-02-03T22:03:40.659Z,7.68
2023-02-03T22:06:16.503Z,7.67
2023-02-03T22:08:48.506Z,7.64
2023-02-03T22:11:17.051Z,7.62
2023-02-03T22:13:43.711Z,7.61
2023-02-03T22:16:10.777Z,7.60
2023-02-03T22:18:37.358Z,7.59
2023-02-03T22:21:03.978Z,7.58
2023-02-03T22:23:30.637Z,7.60
2023-02-03T22:25:57.152Z,7.59
2023-02-03T22:28:23.696Z,7.57
2023-02-03T22:30:50.379Z,7.56
2023-02-03T22:33:16.907Z,7.56
2023-02-03T22:35:43.419Z,7.56
2023-02-03T22:38:09.907Z,7.54
2023-02-03T22:40:36.822Z,7.51
2023-02-03T22:43:03.396Z,7.52
2023-02-03T22:45:30.182Z,7.51
2023-02-03T22:47:58.489Z,7.51
2023-02-03T22:50:35.038Z,7.50
2023-02-03T22:53:04.270Z,7.51
2023-02-03T22:55:31.237Z,7.48
2023-02-03T22:57:59.022Z,7.48
2023-02-03T23:00:26.633Z,7.46
2023-02-03T23:02:53.743Z,7.47
2023-02-03T23:05:20.360Z,7.47
2023-02-03T23:07:47.345Z,7.47
2023-02-03T23:10:20.254Z,7.50
2023-02-03T23:12:46.963Z,7.49
2023-02-03T23:15:13.574Z,7.49
2023-02-03T23:17:40.812Z,7.45
2023-02-03T23:20:09.369Z,7.43
2023-02-03T23:22:35.892Z,7.41
2023-02-03T23:25:03.141Z,7.39
2023-02-03T23:27:29.865Z,7.41
2023-02-03T23:29:56.481Z,7.39
2023-02-03T23:32:23.211Z,7.38
2023-02-03T23:35:08.488Z,7.38
2023-02-03T23:37:35.021Z,7.38
2023-02-03T23:40:01.597Z,7.37
2023-02-03T23:42:28.388Z,7.35
2023-02-03T23:44:55.991Z,7.34
2023-02-03T23:47:22.720Z,7.36
2023-02-03T23:49:49.189Z,7.33
2023-02-03T23:52:15.660Z,7.32
2023-02-03T23:54:42.470Z,7.31
2023-02-03T23:57:08.978Z,7.29
2023-02-03T23:59:35.525Z,7.29
